createdAt,value
2022-09-03T00:10:16.247Z,95712.41
2022-09-03T00:25:26.972Z,95709.38
2022-09-03T00:40:41.985Z,95696.41
2022-09-03T00:55:58.523Z,95706.13
2022-09-03T01:11:10.515Z,95698.03
2022-09-03T01:26:31.439Z,95698.66
2022-09-03T01:42:12.112Z,95695.59
2022-09-03T01:57:34.489Z,95699.69
2022-09-03T02:12:38.463Z,95699.50
2022-09-03T02:27:40.761Z,95700.94
2022-09-03T02:42:43.204Z,95715.50
2022-09-03T02:57:45.678Z,95696.41
2022-09-03T03:12:47.884Z,95682.84
2022-09-03T03:27:50.120Z,95694.00
2022-09-03T03:42:53.557Z,95720.91
2022-09-03T03:57:55.799Z,95726.59
2022-09-03T04:12:58.033Z,95719.91
2022-09-03T04:28:00.369Z,95709.97
2022-09-03T04:43:05.014Z,95711.19
2022-09-03T04:58:10.063Z,95723.97
2022-09-03T05:13:12.312Z,95718.19
2022-09-03T05:28:14.692Z,95723.28
2022-09-03T05:43:17.214Z,95709.41
2022-09-03T05:58:19.434Z,95712.47
2022-09-03T06:13:21.744Z,95727.44
2022-09-03T06:28:24.166Z,95739.59
2022-09-03T06:43:33.005Z,95736.97
2022-09-03T06:58:37.753Z,95733.25
2022-09-03T07:13:46.718Z,95743.97
2022-09-03T07:28:55.192Z,95741.81
2022-09-03T08:17:50.886Z,95760.25
2022-09-03T08:32:53.942Z,95772.03
2022-09-03T08:48:12.092Z,95770.75
2022-09-03T09:03:17.213Z,95771.72
2022-09-03T09:18:37.136Z,95778.94
2022-09-03T09:33:39.371Z,95786.03
2022-09-03T09:48:55.524Z,95790.09
2022-09-03T10:04:11.719Z,95778.44
2022-09-03T10:19:17.196Z,95791.44
2022-09-03T10:34:37.264Z,95777.63
2022-09-03T10:49:51.383Z,95782.16
2022-09-03T11:04:58.131Z,95759.44
2022-09-03T11:20:10.692Z,95760.22
2022-09-03T11:35:28.169Z,95727.81
2022-09-03T11:50:31.910Z,95732.97
2022-09-03T12:05:37.071Z,95744.69
2022-09-03T12:20:40.226Z,95772.81
2022-09-03T12:35:58.565Z,95752.63
2022-09-03T12:51:47.813Z,95786.91
2022-09-03T13:06:28.433Z,95798.44
2022-09-03T13:21:50.739Z,95785.53
2022-09-03T13:37:37.445Z,95791.84
2022-09-03T13:52:59.320Z,95814.34
2022-09-03T14:08:08.373Z,95816.13
2022-09-03T14:23:26.248Z,95791.59
2022-09-03T14:38:56.350Z,95797.97
2022-09-03T14:54:24.883Z,95802.72
2022-09-03T15:09:43.822Z,95824.13
2022-09-03T15:25:13.102Z,95830.78
2022-09-03T15:40:48.515Z,95813.66
2022-09-03T15:56:03.608Z,95814.66
2022-09-03T16:11:18.547Z,95819.06
2022-09-03T16:26:33.644Z,95807.66
2022-09-03T16:41:56.213Z,95810.59
2022-09-03T16:57:29.025Z,95820.09
2022-09-03T17:12:39.527Z,95814.44
2022-09-03T17:28:02.288Z,95812.97
2022-09-03T17:43:04.432Z,95833.97
2022-09-03T17:58:28.281Z,95857.25
2022-09-03T18:13:30.366Z,95899.97
2022-09-03T18:29:20.008Z,95923.44
2022-09-03T18:45:20.889Z,95937.31
2022-09-03T19:00:42.696Z,95945.09
2022-09-03T19:16:10.227Z,95946.53
2022-09-03T19:32:00.610Z,95951.91
2022-09-03T19:47:22.285Z,95958.53
2022-09-03T20:02:43.919Z,95963.56
2022-09-03T20:17:56.041Z,95963.38
2022-09-03T20:33:26.027Z,95979.19
2022-09-03T20:49:08.407Z,95979.41
2022-09-03T21:04:24.417Z,95988.81
2022-09-03T21:19:54.548Z,95996.88
2022-09-03T21:35:20.777Z,95994.38
2022-09-03T21:50:24.344Z,96002.91
2022-09-03T22:05:29.230Z,96005.06
2022-09-03T22:20:31.514Z,96010.66
2022-09-03T22:35:46.476Z,96020.00
2022-09-03T22:51:01.852Z,96032.56
2022-09-03T23:06:14.187Z,96054.88
2022-09-03T23:21:26.118Z,96057.44
2022-09-03T23:52:40.734Z,96071.69
